sensor_id;sensor_type;location;lat;lon;timestamp;pressure;altitude;pressure_sealevel;temperature;humidity
5595;BME280;1003;48.002;7.788;2023-04-25T00:00:06;98428.75;;;9.75;100.00
5595;BME280;1003;48.002;7.788;2023-04-25T00:02:34;98418.78;;;9.70;100.00
5595;BME280;1003;48.002;7.788;2023-04-25T00:05:01;98403.03;;;9.63;100.00
5595;BME280;1003;48.002;7.788;2023-04-25T00:07:29;98377.16;;;9.60;100.00
5595;BME280;1003;48.002;7.788;2023-04-25T00:09:56;98355.53;;;9.54;100.00
5595;BME280;1003;48.002;7.788;2023-04-25T00:12:25;98349.00;;;9.47;100.00
5595;BME280;1003;48.002;7.788;2023-04-25T00:14:53;98342.38;;;9.43;100.00
5595;BME280;1003;48.002;7.788;2023-04-25T00:17:22;98329.78;;;9.44;100.00
5595;BME280;1003;48.002;7.788;2023-04-25T00:19:50;98321.47;;;9.42;100.00
5595;BME280;1003;48.002;7.788;2023-04-25T00:22:17;98319.78;;;9.43;100.00
5595;BME280;1003;48.002;7.788;2023-04-25T00:24:44;98311.56;;;9.36;100.00
5595;BME280;1003;48.002;7.788;2023-04-25T00:27:11;98295.75;;;9.33;100.00
5595;BME280;1003;48.002;7.788;2023-04-25T00:29:39;98287.53;;;9.25;100.00
5595;BME280;1003;48.002;7.788;2023-04-25T00:32:06;98273.44;;;9.19;100.00
5595;BME280;1003;48.002;7.788;2023-04-25T00:34:33;98243.47;;;9.13;100.00
5595;BME280;1003;48.002;7.788;2023-04-25T00:37:01;98209.34;;;9.07;100.00
5595;BME280;1003;48.002;7.788;2023-04-25T00:39:28;98198.53;;;9.05;100.00
5595;BME280;1003;48.002;7.788;2023-04-25T00:41:55;98180.25;;;9.00;100.00
5595;BME280;1003;48.002;7.788;2023-04-25T00:44:24;98170.09;;;9.06;100.00
5595;BME280;1003;48.002;7.788;2023-04-25T00:46:54;98188.69;;;8.96;100.00
5595;BME280;1003;48.002;7.788;2023-04-25T00:49:21;98172.13;;;8.89;100.00
5595;BME280;1003;48.002;7.788;2023-04-25T00:51:48;98149.69;;;8.81;100.00
5595;BME280;1003;48.002;7.788;2023-04-25T00:54:16;98114.72;;;8.77;100.00
5595;BME280;1003;48.002;7.788;2023-04-25T00:56:43;98112.34;;;8.71;100.00
5595;BME280;1003;48.002;7.788;2023-04-25T00:59:11;98105.81;;;8.63;100.00
5595;BME280;1003;48.002;7.788;2023-04-25T01:01:39;98099.31;;;8.53;100.00
5595;BME280;1003;48.002;7.788;2023-04-25T01:04:08;98094.41;;;8.50;100.00
5595;BME280;1003;48.002;7.788;2023-04-25T01:06:36;98082.88;;;8.41;100.00
5595;BME280;1003;48.002;7.788;2023-04-25T01:09:04;98083.91;;;8.28;100.00
5595;BME280;1003;48.002;7.788;2023-04-25T01:11:31;98081.50;;;8.24;100.00
5595;BME280;1003;48.002;7.788;2023-04-25T01:13:58;98093.28;;;8.19;100.00
5595;BME280;1003;48.002;7.788;2023-04-25T01:16:26;98094.28;;;8.07;100.00
5595;BME280;1003;48.002;7.788;2023-04-25T01:18:54;98101.72;;;8.11;100.00
5595;BME280;1003;48.002;7.788;2023-04-25T01:21:23;98111.81;;;8.08;100.00
5595;BME280;1003;48.002;7.788;2023-04-25T01:23:54;98121.84;;;8.05;100.00
5595;BME280;1003;48.002;7.788;2023-04-25T01:26:22;98132.13;;;7.92;100.00
5595;BME280;1003;48.002;7.788;2023-04-25T01:28:50;98150.56;;;7.86;100.00
5595;BME280;1003;48.002;7.788;2023-04-25T01:31:18;98171.44;;;7.82;100.00
5595;BME280;1003;48.002;7.788;2023-04-25T01:33:47;98189.63;;;7.93;100.00
5595;BME280;1003;48.002;7.788;2023-04-25T01:36:15;98201.31;;;7.93;100.00
5595;BME280;1003;48.002;7.788;2023-04-25T01:38:43;98230.28;;;8.07;100.00
5595;BME280;1003;48.002;7.788;2023-04-25T01:41:13;98225.09;;;8.16;100.00
5595;BME280;1003;48.002;7.788;2023-04-25T01:43:40;98235.94;;;8.19;100.00
5595;BME280;1003;48.002;7.788;2023-04-25T01:46:07;98225.09;;;8.18;100.00
5595;BME280;1003;48.002;7.788;2023-04-25T01:48:35;98261.78;;;8.19;100.00
5595;BME280;1003;48.002;7.788;2023-04-25T01:51:02;98281.69;;;8.27;100.00
5595;BME280;1003;48.002;7.788;2023-04-25T01:53:30;98283.25;;;8.32;100.00
5595;BME280;1003;48.002;7.788;2023-04-25T01:55:58;98289.03;;;8.39;100.00
5595;BME280;1003;48.002;7.788;2023-04-25T01:58:25;98272.25;;;8.44;100.00
5595;BME280;1003;48.002;7.788;2023-04-25T02:00:52;98271.38;;;8.48;100.00
5595;BME280;1003;48.002;7.788;2023-04-25T02:03:19;98261.13;;;8.60;100.00
5595;BME280;1003;48.002;7.788;2023-04-25T02:05:46;98256.16;;;8.59;100.00
5595;BME280;1003;48.002;7.788;2023-04-25T02:08:14;98240.16;;;8.66;100.00
5595;BME280;1003;48.002;7.788;2023-04-25T02:10:41;98216.00;;;8.63;100.00
5595;BME280;1003;48.002;7.788;2023-04-25T02:13:09;98204.47;;;8.56;100.00
5595;BME280;1003;48.002;7.788;2023-04-25T02:15:36;98204.41;;;8.58;100.00
5595;BME280;1003;48.002;7.788;2023-04-25T02:18:03;98186.81;;;8.62;100.00
5595;BME280;1003;48.002;7.788;2023-04-25T02:20:32;98184.19;;;8.68;100.00
5595;BME280;1003;48.002;7.788;2023-04-25T02:22:59;98173.09;;;8.80;100.00
5595;BME280;1003;48.002;7.788;2023-04-25T02:25:26;98154.84;;;8.75;100.00
5595;BME280;1003;48.002;7.788;2023-04-25T02:27:53;98148.97;;;8.78;100.00
5595;BME280;1003;48.002;7.788;2023-04-25T02:30:22;98144.81;;;8.75;100.00
5595;BME280;1003;48.002;7.788;2023-04-25T02:32:49;98138.94;;;8.76;100.00
5595;BME280;1003;48.002;7.788;2023-04-25T02:35:16;98131.31;;;8.82;100.00
5595;BME280;1003;48.002;7.788;2023-04-25T02:37:43;98118.72;;;8.85;100.00
5595;BME280;1003;48.002;7.788;2023-04-25T02:40:11;98117.09;;;8.84;100.00
5595;BME280;1003;48.002;7.788;2023-04-25T02:42:38;98117.78;;;8.91;100.00
5595;BME280;1003;48.002;7.788;2023-04-25T02:45:06;98094.50;;;8.86;100.00
5595;BME280;1003;48.002;7.788;2023-04-25T02:47:34;98097.81;;;8.86;100.00
5595;BME280;1003;48.002;7.788;2023-04-25T02:50:02;98088.66;;;8.85;100.00
5595;BME280;1003;48.002;7.788;2023-04-25T02:52:29;98083.75;;;8.81;100.00
5595;BME280;1003;48.002;7.788;2023-04-25T02:54:56;98095.44;;;8.80;100.00
5595;BME280;1003;48.002;7.788;2023-04-25T02:57:23;98085.50;;;8.77;100.00
5595;BME280;1003;48.002;7.788;2023-04-25T02:59:50;98079.59;;;8.80;100.00
5595;BME280;1003;48.002;7.788;2023-04-25T03:02:17;98077.09;;;8.80;100.00
5595;BME280;1003;48.002;7.788;2023-04-25T03:04:46;98070.44;;;8.79;100.00
5595;BME280;1003;48.002;7.788;2023-04-25T03:07:13;98065.34;;;8.82;100.00
5595;BME280;1003;48.002;7.788;2023-04-25T03:09:40;98061.06;;;8.87;100.00
5595;BME280;1003;48.002;7.788;2023-04-25T03:12:07;98060.31;;;8.83;100.00
5595;BME280;1003;48.002;7.788;2023-04-25T03:14:34;98056.16;;;8.82;100.00
5595;BME280;1003;48.002;7.788;2023-04-25T03:17:01;98057.00;;;8.81;100.00
5595;BME280;1003;48.002;7.788;2023-04-25T03:19:28;98052.91;;;8.79;100.00
5595;BME280;1003;48.002;7.788;2023-04-25T03:21:57;98050.41;;;8.79;100.00
5595;BME280;1003;48.002;7.788;2023-04-25T03:24:24;98040.28;;;8.82;100.00
5595;BME280;1003;48.002;7.788;2023-04-25T03:26:52;98041.13;;;8.82;100.00
5595;BME280;1003;48.002;7.788;2023-04-25T03:29:19;98034.50;;;8.80;100.00
5595;BME280;1003;48.002;7.788;2023-04-25T03:31:50;98026.22;;;8.78;100.00
5595;BME280;1003;48.002;7.788;2023-04-25T03:34:17;98017.63;;;8.88;100.00
5595;BME280;1003;48.002;7.788;2023-04-25T03:36:44;98019.25;;;8.90;100.00
5595;BME280;1003;48.002;7.788;2023-04-25T03:39:13;98004.88;;;8.99;100.00
5595;BME280;1003;48.002;7.788;2023-04-25T03:41:40;98011.63;;;8.95;100.00
5595;BME280;1003;48.002;7.788;2023-04-25T03:44:07;98012.00;;;8.77;100.00
5595;BME280;1003;48.002;7.788;2023-04-25T03:46:34;98004.84;;;8.60;100.00
5595;BME280;1003;48.002;7.788;2023-04-25T03:49:01;98001.03;;;8.45;100.00
5595;BME280;1003;48.002;7.788;2023-04-25T03:51:28;98005.22;;;8.43;100.00
5595;BME280;1003;48.002;7.788;2023-04-25T03:53:56;97998.91;;;8.24;100.00
5595;BME280;1003;48.002;7.788;2023-04-25T03:56:24;97996.88;;;7.99;100.00
5595;BME280;1003;48.002;7.788;2023-04-25T03:58:51;97993.03;;;7.81;100.00
5595;BME280;1003;48.002;7.788;2023-04-25T04:01:18;97993.16;;;7.75;100.00
5595;BME280;1003;48.002;7.788;2023-04-25T04:03:46;97993.34;;;7.65;100.00
5595;BME280;1003;48.002;7.788;2023-04-25T04:06:13;97989.31;;;7.56;100.00
5595;BME280;1003;48.002;7.788;2023-04-25T04:08:40;97999.81;;;7.75;100.00
5595;BME280;1003;48.002;7.788;2023-04-25T04:11:07;98002.31;;;7.76;100.00
5595;BME280;1003;48.002;7.788;2023-04-25T04:13:36;97998.28;;;7.68;100.00
5595;BME280;1003;48.002;7.788;2023-04-25T04:16:03;98001.41;;;7.79;100.00
5595;BME280;1003;48.002;7.788;2023-04-25T04:18:30;98005.47;;;7.86;100.00
5595;BME280;1003;48.002;7.788;2023-04-25T04:20:58;98012.69;;;8.00;100.00
5595;BME280;1003;48.002;7.788;2023-04-25T04:23:25;98011.72;;;8.08;100.00
5595;BME280;1003;48.002;7.788;2023-04-25T04:25:54;98014.16;;;8.11;100.00
5595;BME280;1003;48.002;7.788;2023-04-25T04:28:21;98013.97;;;8.21;100.00
5595;BME280;1003;48.002;7.788;2023-04-25T04:30:50;98014.75;;;8.24;100.00
5595;BME280;1003;48.002;7.788;2023-04-25T04:33:18;98024.59;;;8.32;100.00
5595;BME280;1003;48.002;7.788;2023-04-25T04:35:46;98022.88;;;8.35;100.00
5595;BME280;1003;48.002;7.788;2023-04-25T04:38:14;98017.84;;;8.37;100.00
5595;BME280;1003;48.002;7.788;2023-04-25T04:40:41;98020.38;;;8.35;100.00
5595;BME280;1003;48.002;7.788;2023-04-25T04:43:09;98024.53;;;8.36;100.00
5595;BME280;1003;48.002;7.788;2023-04-25T04:45:36;98027.88;;;8.37;100.00
5595;BME280;1003;48.002;7.788;2023-04-25T04:48:06;98018.63;;;8.39;100.00
5595;BME280;1003;48.002;7.788;2023-04-25T04:50:33;98026.00;;;8.47;100.00
5595;BME280;1003;48.002;7.788;2023-04-25T04:53:02;98029.28;;;8.50;100.00
5595;BME280;1003;48.002;7.788;2023-04-25T04:55:29;98025.19;;;8.46;100.00
5595;BME280;1003;48.002;7.788;2023-04-25T04:57:56;98041.06;;;8.45;100.00
5595;BME280;1003;48.002;7.788;2023-04-25T05:00:23;98046.00;;;8.48;100.00
5595;BME280;1003;48.002;7.788;2023-04-25T05:02:50;98045.19;;;8.48;100.00
5595;BME280;1003;48.002;7.788;2023-04-25T05:05:19;98059.31;;;8.52;100.00
5595;BME280;1003;48.002;7.788;2023-04-25T05:07:46;98067.56;;;8.55;100.00
5595;BME280;1003;48.002;7.788;2023-04-25T05:10:13;98103.47;;;8.56;100.00
5595;BME280;1003;48.002;7.788;2023-04-25T05:12:40;98138.44;;;8.59;100.00
5595;BME280;1003;48.002;7.788;2023-04-25T05:15:07;98183.41;;;8.65;100.00
5595;BME280;1003;48.002;7.788;2023-04-25T05:17:35;98229.28;;;8.68;100.00
5595;BME280;1003;48.002;7.788;2023-04-25T05:20:02;98278.47;;;8.71;100.00
5595;BME280;1003;48.002;7.788;2023-04-25T05:22:32;98369.44;;;8.75;100.00
5595;BME280;1003;48.002;7.788;2023-04-25T05:24:59;98429.66;;;8.68;100.00
5595;BME280;1003;48.002;7.788;2023-04-25T05:27:26;98514.94;;;8.62;100.00
5595;BME280;1003;48.002;7.788;2023-04-25T05:29:53;98609.41;;;8.51;100.00
5595;BME280;1003;48.002;7.788;2023-04-25T05:32:20;98674.59;;;8.42;100.00
5595;BME280;1003;48.002;7.788;2023-04-25T05:34:48;98728.06;;;8.32;100.00
5595;BME280;1003;48.002;7.788;2023-04-25T05:37:15;98766.47;;;8.28;100.00
5595;BME280;1003;48.002;7.788;2023-04-25T05:39:43;98788.31;;;8.09;100.00
5595;BME280;1003;48.002;7.788;2023-04-25T05:42:10;98800.88;;;8.01;100.00
5595;BME280;1003;48.002;7.788;2023-04-25T05:44:37;98795.06;;;7.96;100.00
5595;BME280;1003;48.002;7.788;2023-04-25T05:47:04;98815.13;;;7.90;100.00
5595;BME280;1003;48.002;7.788;2023-04-25T05:49:31;98821.00;;;7.83;100.00
5595;BME280;1003;48.002;7.788;2023-04-25T05:51:58;98823.56;;;7.68;100.00
5595;BME280;1003;48.002;7.788;2023-04-25T05:54:25;98826.09;;;7.58;100.00
5595;BME280;1003;48.002;7.788;2023-04-25T05:56:53;98845.28;;;7.58;100.00
5595;BME280;1003;48.002;7.788;2023-04-25T05:59:20;98846.16;;;7.49;100.00
5595;BME280;1003;48.002;7.788;2023-04-25T06:01:47;98862.00;;;7.41;100.00
5595;BME280;1003;48.002;7.788;2023-04-25T06:04:14;98872.84;;;7.38;100.00
5595;BME280;1003;48.002;7.788;2023-04-25T06:06:41;98884.53;;;7.38;100.00
5595;BME280;1003;48.002;7.788;2023-04-25T06:09:08;98894.53;;;7.33;100.00
5595;BME280;1003;48.002;7.788;2023-04-25T06:11:35;98908.66;;;7.37;100.00
5595;BME280;1003;48.002;7.788;2023-04-25T06:14:04;98912.00;;;7.41;100.00
5595;BME280;1003;48.002;7.788;2023-04-25T06:16:31;98927.84;;;7.44;100.00
5595;BME280;1003;48.002;7.788;2023-04-25T06:18:58;98937.00;;;7.34;100.00
5595;BME280;1003;48.002;7.788;2023-04-25T06:21:25;98943.66;;;7.26;100.00
5595;BME280;1003;48.002;7.788;2023-04-25T06:23:53;98945.34;;;7.24;100.00
5595;BME280;1003;48.002;7.788;2023-04-25T06:26:20;98955.34;;;7.35;100.00
5595;BME280;1003;48.002;7.788;2023-04-25T06:28:47;98962.00;;;7.44;100.00
5595;BME280;1003;48.002;7.788;2023-04-25T06:31:15;98976.19;;;7.43;100.00
5595;BME280;1003;48.002;7.788;2023-04-25T06:33:42;98983.66;;;7.52;100.00
5595;BME280;1003;48.002;7.788;2023-04-25T06:36:09;98995.34;;;7.66;100.00
5595;BME280;1003;48.002;7.788;2023-04-25T06:38:36;98999.47;;;7.73;100.00
5595;BME280;1003;48.002;7.788;2023-04-25T06:41:03;99015.31;;;7.78;100.00
5595;BME280;1003;48.002;7.788;2023-04-25T06:43:30;99014.50;;;7.76;100.00
5595;BME280;1003;48.002;7.788;2023-04-25T06:45:59;99021.97;;;7.85;100.00
5595;BME280;1003;48.002;7.788;2023-04-25T06:48:28;99030.31;;;7.98;100.00
5595;BME280;1003;48.002;7.788;2023-04-25T06:50:55;99029.47;;;7.97;100.00
5595;BME280;1003;48.002;7.788;2023-04-25T06:53:22;99037.84;;;7.81;100.00
5595;BME280;1003;48.002;7.788;2023-04-25T06:55:49;99045.31;;;7.93;100.00
5595;BME280;1003;48.002;7.788;2023-04-25T06:58:16;99034.50;;;7.73;100.00
5595;BME280;1003;48.002;7.788;2023-04-25T07:00:43;99040.34;;;7.76;100.00
5595;BME280;1003;48.002;7.788;2023-04-25T07:03:10;99045.34;;;7.87;100.00
5595;BME280;1003;48.002;7.788;2023-04-25T07:05:39;99056.13;;;8.01;100.00
5595;BME280;1003;48.002;7.788;2023-04-25T07:08:06;99067.84;;;7.98;100.00
5595;BME280;1003;48.002;7.788;2023-04-25T07:10:33;99066.16;;;7.89;100.00
5595;BME280;1003;48.002;7.788;2023-04-25T07:13:00;99072.00;;;7.97;100.00
5595;BME280;1003;48.002;7.788;2023-04-25T07:15:27;99081.16;;;8.09;100.00
5595;BME280;1003;48.002;7.788;2023-04-25T07:17:54;99089.50;;;8.15;100.00
5595;BME280;1003;48.002;7.788;2023-04-25T07:20:22;99087.00;;;8.11;100.00
5595;BME280;1003;48.002;7.788;2023-04-25T07:22:50;99099.53;;;7.99;100.00
5595;BME280;1003;48.002;7.788;2023-04-25T07:25:17;99097.00;;;8.05;100.00
5595;BME280;1003;48.002;7.788;2023-04-25T07:27:44;99100.38;;;8.02;100.00
5595;BME280;1003;48.002;7.788;2023-04-25T07:30:12;99112.03;;;8.15;100.00
5595;BME280;1003;48.002;7.788;2023-04-25T07:32:39;99116.22;;;8.18;100.00
5595;BME280;1003;48.002;7.788;2023-04-25T07:35:07;99111.22;;;7.94;100.00
5595;BME280;1003;48.002;7.788;2023-04-25T07:37:34;99120.38;;;8.08;100.00
5595;BME280;1003;48.002;7.788;2023-04-25T07:40:04;99128.72;;;8.18;100.00
5595;BME280;1003;48.002;7.788;2023-04-25T07:42:33;99143.75;;;8.39;100.00
5595;BME280;1003;48.002;7.788;2023-04-25T07:45:00;99147.00;;;8.60;100.00
5595;BME280;1003;48.002;7.788;2023-04-25T07:47:28;99157.81;;;8.88;100.00
5595;BME280;1003;48.002;7.788;2023-04-25T07:49:55;99157.72;;;9.06;100.00
5595;BME280;1003;48.002;7.788;2023-04-25T07:52:23;99161.00;;;9.19;100.00
5595;BME280;1003;48.002;7.788;2023-04-25T07:54:50;99156.81;;;9.19;100.00
5595;BME280;1003;48.002;7.788;2023-04-25T07:57:19;99161.75;;;9.38;100.00
5595;BME280;1003;48.002;7.788;2023-04-25T07:59:46;99167.50;;;9.51;100.00
5595;BME280;1003;48.002;7.788;2023-04-25T08:02:13;99155.75;;;9.63;100.00
5595;BME280;1003;48.002;7.788;2023-04-25T08:04:40;99144.81;;;9.67;100.00
5595;BME280;1003;48.002;7.788;2023-04-25T08:07:07;99143.13;;;9.68;100.00
5595;BME280;1003;48.002;7.788;2023-04-25T08:09:35;99145.53;;;9.83;100.00
5595;BME280;1003;48.002;7.788;2023-04-25T08:12:03;99142.78;;;10.14;100.00
5595;BME280;1003;48.002;7.788;2023-04-25T08:14:31;99124.56;;;9.92;100.00
5595;BME280;1003;48.002;7.788;2023-04-25T08:17:01;99111.50;;;9.49;100.00
5595;BME280;1003;48.002;7.788;2023-04-25T08:19:29;99123.06;;;9.68;100.00
5595;BME280;1003;48.002;7.788;2023-04-25T08:21:56;99122.19;;;9.73;100.00
5595;BME280;1003;48.002;7.788;2023-04-25T08:24:23;99107.50;;;9.22;100.00
5595;BME280;1003;48.002;7.788;2023-04-25T08:26:51;99106.59;;;9.32;100.00
5595;BME280;1003;48.002;7.788;2023-04-25T08:29:18;99107.56;;;9.03;100.00
5595;BME280;1003;48.002;7.788;2023-04-25T08:31:47;99115.94;;;9.05;100.00
5595;BME280;1003;48.002;7.788;2023-04-25T08:34:14;99123.34;;;9.24;100.00
5595;BME280;1003;48.002;7.788;2023-04-25T08:36:41;99123.41;;;9.13;100.00
5595;BME280;1003;48.002;7.788;2023-04-25T08:39:08;99122.53;;;9.18;100.00
5595;BME280;1003;48.002;7.788;2023-04-25T08:41:37;99132.53;;;9.28;100.00
5595;BME280;1003;48.002;7.788;2023-04-25T08:44:06;99124.97;;;9.35;100.00
5595;BME280;1003;48.002;7.788;2023-04-25T08:46:37;99126.59;;;9.42;100.00
5595;BME280;1003;48.002;7.788;2023-04-25T08:49:08;99114.25;;;9.07;100.00
5595;BME280;1003;48.002;7.788;2023-04-25T08:51:43;99117.56;;;9.12;100.00
5595;BME280;1003;48.002;7.788;2023-04-25T08:54:12;99123.34;;;9.24;100.00
5595;BME280;1003;48.002;7.788;2023-04-25T08:56:45;99124.25;;;9.16;100.00
5595;BME280;1003;48.002;7.788;2023-04-25T08:59:14;99133.22;;;9.50;100.00
5595;BME280;1003;48.002;7.788;2023-04-25T09:01:41;99127.34;;;9.55;100.00
5595;BME280;1003;48.002;7.788;2023-04-25T09:04:09;99133.06;;;9.76;100.00
5595;BME280;1003;48.002;7.788;2023-04-25T09:06:38;99129.59;;;9.90;100.00
5595;BME280;1003;48.002;7.788;2023-04-25T09:09:06;99109.44;;;9.98;100.00
5595;BME280;1003;48.002;7.788;2023-04-25T09:11:36;99096.81;;;10.07;100.00
5595;BME280;1003;48.002;7.788;2023-04-25T09:14:14;99083.38;;;10.13;100.00
5595;BME280;1003;48.002;7.788;2023-04-25T09:17:01;99060.66;;;10.25;100.00
5595;BME280;1003;48.002;7.788;2023-04-25T09:19:31;99047.09;;;10.40;100.00
5595;BME280;1003;48.002;7.788;2023-04-25T09:22:03;99024.34;;;10.52;100.00
5595;BME280;1003;48.002;7.788;2023-04-25T09:24:36;99007.41;;;10.65;100.00
5595;BME280;1003;48.002;7.788;2023-04-25T09:27:05;99009.34;;;11.06;100.00
5595;BME280;1003;48.002;7.788;2023-04-25T09:29:33;99004.25;;;11.63;100.00
5595;BME280;1003;48.002;7.788;2023-04-25T09:32:14;98973.47;;;12.37;100.00
5595;BME280;1003;48.002;7.788;2023-04-25T09:34:45;98939.47;;;12.56;100.00
5595;BME280;1003;48.002;7.788;2023-04-25T09:37:19;98899.41;;;12.81;100.00
5595;BME280;1003;48.002;7.788;2023-04-25T09:39:48;98886.22;;;13.04;100.00
5595;BME280;1003;48.002;7.788;2023-04-25T09:42:16;98909.53;;;13.48;100.00
5595;BME280;1003;48.002;7.788;2023-04-25T09:44:45;98893.44;;;13.82;100.00
5595;BME280;1003;48.002;7.788;2023-04-25T09:47:15;98892.16;;;13.98;100.00
5595;BME280;1003;48.002;7.788;2023-04-25T09:49:44;98897.00;;;14.06;100.00
5595;BME280;1003;48.002;7.788;2023-04-25T09:52:16;98881.84;;;14.88;100.00
5595;BME280;1003;48.002;7.788;2023-04-25T09:54:43;98827.81;;;14.10;100.00
5595;BME280;1003;48.002;7.788;2023-04-25T09:57:14;98805.06;;;12.88;100.00
5595;BME280;1003;48.002;7.788;2023-04-25T09:59:46;98806.72;;;13.53;100.00
5595;BME280;1003;48.002;7.788;2023-04-25T10:02:16;98788.88;;;12.63;100.00
5595;BME280;1003;48.002;7.788;2023-04-25T10:04:49;98807.88;;;13.71;100.00
5595;BME280;1003;48.002;7.788;2023-04-25T10:07:19;98804.81;;;14.17;100.00
5595;BME280;1003;48.002;7.788;2023-04-25T10:09:48;98788.88;;;14.68;100.00
5595;BME280;1003;48.002;7.788;2023-04-25T10:12:17;98723.41;;;14.08;100.00
5595;BME280;1003;48.002;7.788;2023-04-25T10:14:45;98725.88;;;15.34;100.00
5595;BME280;1003;48.002;7.788;2023-04-25T10:17:14;98651.00;;;15.71;100.00
5595;BME280;1003;48.002;7.788;2023-04-25T10:19:41;98605.41;;;15.27;100.00
5595;BME280;1003;48.002;7.788;2023-04-25T10:22:18;98563.63;;;14.95;100.00
5595;BME280;1003;48.002;7.788;2023-04-25T10:24:47;98495.28;;;14.28;100.00
5595;BME280;1003;48.002;7.788;2023-04-25T10:27:15;98429.56;;;13.81;100.00
5595;BME280;1003;48.002;7.788;2023-04-25T10:29:42;98436.44;;;14.01;100.00
5595;BME280;1003;48.002;7.788;2023-04-25T10:32:10;98479.09;;;13.85;100.00
5595;BME280;1003;48.002;7.788;2023-04-25T10:34:42;98466.19;;;13.69;100.00
5595;BME280;1003;48.002;7.788;2023-04-25T10:37:14;98503.81;;;14.49;100.00
5595;BME280;1003;48.002;7.788;2023-04-25T10:39:41;98502.88;;;15.17;100.00
5595;BME280;1003;48.002;7.788;2023-04-25T10:42:09;98503.75;;;15.16;100.00
5595;BME280;1003;48.002;7.788;2023-04-25T10:44:38;98495.28;;;14.51;100.00
5595;BME280;1003;48.002;7.788;2023-04-25T10:47:07;98499.72;;;14.21;100.00
5595;BME280;1003;48.002;7.788;2023-04-25T10:49:37;98526.03;;;14.62;100.00
5595;BME280;1003;48.002;7.788;2023-04-25T10:52:27;98515.19;;;15.04;100.00
5595;BME280;1003;48.002;7.788;2023-04-25T10:54:57;98530.94;;;14.43;100.00
5595;BME280;1003;48.002;7.788;2023-04-25T10:57:36;98536.31;;;14.34;100.00
5595;BME280;1003;48.002;7.788;2023-04-25T11:00:14;98525.16;;;14.40;100.00
5595;BME280;1003;48.002;7.788;2023-04-25T11:02:43;98528.44;;;13.95;100.00
5595;BME280;1003;48.002;7.788;2023-04-25T11:05:23;98539.56;;;13.89;100.00
5595;BME280;1003;48.002;7.788;2023-04-25T11:07:58;98551.41;;;13.87;100.00
5595;BME280;1003;48.002;7.788;2023-04-25T11:10:26;98545.97;;;14.47;100.00
5595;BME280;1003;48.002;7.788;2023-04-25T11:12:54;98541.88;;;13.71;100.00
5595;BME280;1003;48.002;7.788;2023-04-25T11:15:21;98565.81;;;14.59;100.00
5595;BME280;1003;48.002;7.788;2023-04-25T11:17:48;98550.09;;;14.51;100.00
5595;BME280;1003;48.002;7.788;2023-04-25T11:20:16;98515.84;;;15.09;100.00
5595;BME280;1003;48.002;7.788;2023-04-25T11:22:47;98463.66;;;14.63;100.00
5595;BME280;1003;48.002;7.788;2023-04-25T11:25:16;98487.81;;;14.48;100.00
5595;BME280;1003;48.002;7.788;2023-04-25T11:27:50;98513.06;;;14.25;100.00
5595;BME280;1003;48.002;7.788;2023-04-25T11:30:19;98472.59;;;14.26;100.00
5595;BME280;1003;48.002;7.788;2023-04-25T11:32:47;98486.06;;;12.44;100.00
5595;BME280;1003;48.002;7.788;2023-04-25T11:35:14;98541.16;;;12.27;100.00
5595;BME280;1003;48.002;7.788;2023-04-25T11:37:43;98584.44;;;11.39;100.00
5595;BME280;1003;48.002;7.788;2023-04-25T11:40:11;98637.38;;;11.36;100.00
5595;BME280;1003;48.002;7.788;2023-04-25T11:42:44;98690.28;;;11.31;100.00
5595;BME280;1003;48.002;7.788;2023-04-25T11:45:12;98687.00;;;11.66;100.00
5595;BME280;1003;48.002;7.788;2023-04-25T11:47:41;98706.84;;;11.81;100.00
5595;BME280;1003;48.002;7.788;2023-04-25T11:50:10;98721.28;;;12.09;100.00
5595;BME280;1003;48.002;7.788;2023-04-25T11:52:38;98726.34;;;11.70;100.00
5595;BME280;1003;48.002;7.788;2023-04-25T11:55:08;98746.00;;;12.63;100.00
5595;BME280;1003;48.002;7.788;2023-04-25T11:57:40;98760.06;;;13.65;100.00
5595;BME280;1003;48.002;7.788;2023-04-25T12:00:11;98744.53;;;13.79;100.00
5595;BME280;1003;48.002;7.788;2023-04-25T12:02:43;98726.47;;;13.91;100.00
5595;BME280;1003;48.002;7.788;2023-04-25T12:05:13;98692.34;;;14.04;100.00
5595;BME280;1003;48.002;7.788;2023-04-25T12:07:41;98675.91;;;14.17;100.00
5595;BME280;1003;48.002;7.788;2023-04-25T12:10:11;98654.84;;;13.92;100.00
5595;BME280;1003;48.002;7.788;2023-04-25T12:12:43;98646.97;;;13.19;100.00
5595;BME280;1003;48.002;7.788;2023-04-25T12:15:13;98645.50;;;13.11;100.00
5595;BME280;1003;48.002;7.788;2023-04-25T12:17:45;98629.78;;;13.02;100.00
5595;BME280;1003;48.002;7.788;2023-04-25T12:20:14;98623.97;;;13.00;100.00
5595;BME280;1003;48.002;7.788;2023-04-25T12:22:44;98620.66;;;13.27;100.00
5595;BME280;1003;48.002;7.788;2023-04-25T12:25:12;98611.03;;;13.66;100.00
5595;BME280;1003;48.002;7.788;2023-04-25T12:27:41;98603.59;;;13.88;100.00
5595;BME280;1003;48.002;7.788;2023-04-25T12:30:10;98604.28;;;14.42;100.00
5595;BME280;1003;48.002;7.788;2023-04-25T12:32:38;98598.44;;;13.91;100.00
5595;BME280;1003;48.002;7.788;2023-04-25T12:35:06;98588.91;;;13.20;100.00
5595;BME280;1003;48.002;7.788;2023-04-25T12:37:33;98586.22;;;14.04;100.00
5595;BME280;1003;48.002;7.788;2023-04-25T12:40:00;98584.00;;;13.95;100.00
5595;BME280;1003;48.002;7.788;2023-04-25T12:42:27;98572.78;;;13.79;100.00
5595;BME280;1003;48.002;7.788;2023-04-25T12:44:55;98569.00;;;13.90;100.00
5595;BME280;1003;48.002;7.788;2023-04-25T12:47:26;98565.56;;;13.66;100.00
5595;BME280;1003;48.002;7.788;2023-04-25T12:49:53;98590.75;;;13.43;100.00
5595;BME280;1003;48.002;7.788;2023-04-25T12:52:20;98601.91;;;13.36;100.00
5595;BME280;1003;48.002;7.788;2023-04-25T12:54:47;98605.84;;;14.48;100.00
5595;BME280;1003;48.002;7.788;2023-04-25T12:57:14;98597.13;;;15.02;100.00
5595;BME280;1003;48.002;7.788;2023-04-25T12:59:41;98571.44;;;14.42;100.00
5595;BME280;1003;48.002;7.788;2023-04-25T13:02:10;98552.41;;;15.02;100.00
5595;BME280;1003;48.002;7.788;2023-04-25T13:04:37;98506.78;;;14.82;100.00
5595;BME280;1003;48.002;7.788;2023-04-25T13:07:04;98495.06;;;15.23;100.00
5595;BME280;1003;48.002;7.788;2023-04-25T13:09:32;98423.75;;;15.12;100.00
5595;BME280;1003;48.002;7.788;2023-04-25T13:11:59;98382.00;;;15.63;100.00
5595;BME280;1003;48.002;7.788;2023-04-25T13:14:26;98363.41;;;15.23;100.00
5595;BME280;1003;48.002;7.788;2023-04-25T13:16:53;98360.78;;;14.63;100.00
5595;BME280;1003;48.002;7.788;2023-04-25T13:19:22;98419.66;;;15.70;100.00
5595;BME280;1003;48.002;7.788;2023-04-25T13:21:49;98446.66;;;15.71;100.00